Time;durP1;ratioP1;P1;durP2;ratioP2;P2;SDS_P1;SDS_P2;PMS_P1;PMS_P2;Temp;Humidity;BMP_temperature;BMP_pressure;BME280_temperature;BME280_humidity;BME280_pressure;Samples;Min_cycle;Max_cycle;Signal;HPM_P1;HPM_P2
2023/04/22 00:02:07;;;;;;;3.33;2.13;;;14.40;99.90;;;;;;4975481;28;20047;-89
2023/04/22 00:04:33;;;;;;;2.65;1.90;;;14.30;99.90;;;;;;4975278;28;20029;-90
2023/04/22 00:06:59;;;;;;;3.78;2.13;;;14.30;99.90;;;;;;4975895;28;20105;-90
2023/04/22 00:09:25;;;;;;;2.72;2.20;;;14.30;99.90;;;;;;4975471;28;20026;-90
2023/04/22 00:11:51;;;;;;;3.70;2.20;;;14.40;99.90;;;;;;4975028;28;20038;-89
2023/04/22 00:14:17;;;;;;;3.25;2.10;;;14.30;99.90;;;;;;4975790;28;20033;-90
2023/04/22 00:16:43;;;;;;;2.95;2.20;;;14.30;99.90;;;;;;4975312;28;20031;-89
2023/04/22 00:19:08;;;;;;;2.35;2.15;;;14.30;99.90;;;;;;4973857;28;20054;-90
2023/04/22 00:21:34;;;;;;;2.47;2.13;;;14.30;99.90;;;;;;4975301;28;20038;-90
2023/04/22 00:24:00;;;;;;;2.30;2.03;;;14.30;99.90;;;;;;4975504;28;20407;-90
2023/04/22 00:26:25;;;;;;;2.75;2.25;;;14.30;99.90;;;;;;4974807;28;20460;-89
2023/04/22 00:28:51;;;;;;;2.85;2.25;;;14.30;99.90;;;;;;4975394;28;20026;-89
2023/04/22 00:31:16;;;;;;;3.25;2.00;;;14.30;99.90;;;;;;4974232;28;20030;-90
2023/04/22 00:33:42;;;;;;;2.92;2.20;;;14.30;99.90;;;;;;4975189;28;20123;-90
2023/04/22 00:36:07;;;;;;;3.95;2.33;;;14.20;99.90;;;;;;4973871;28;20031;-90
2023/04/22 00:38:33;;;;;;;2.67;2.45;;;14.20;99.90;;;;;;4974987;28;20065;-89
2023/04/22 00:40:59;;;;;;;3.05;2.25;;;14.10;99.90;;;;;;4974450;28;20065;-89
2023/04/22 00:43:24;;;;;;;3.47;2.00;;;14.10;99.90;;;;;;4974650;28;20046;-90
2023/04/22 00:45:50;;;;;;;3.08;2.40;;;14.20;99.90;;;;;;4974566;28;20041;-90
2023/04/22 00:48:16;;;;;;;2.63;2.42;;;14.20;99.90;;;;;;4974890;28;20034;-90
2023/04/22 00:50:41;;;;;;;2.75;2.40;;;14.10;99.90;;;;;;4975001;28;20030;-90
2023/04/22 00:53:07;;;;;;;2.70;2.33;;;14.10;99.90;;;;;;4973437;28;20038;-89
2023/04/22 00:55:33;;;;;;;2.63;2.40;;;14.10;99.90;;;;;;4974360;28;20065;-89
2023/04/22 00:58:01;;;;;;;2.38;2.15;;;14.00;99.90;;;;;;4974572;28;20118;-90
2023/04/22 01:00:27;;;;;;;3.58;2.30;;;14.00;99.90;;;;;;4974388;28;20050;-90
2023/04/22 01:02:54;;;;;;;2.58;2.22;;;13.90;99.90;;;;;;4974940;28;20030;-90
2023/04/22 01:05:20;;;;;;;3.33;2.80;;;13.90;99.90;;;;;;4974824;28;20031;-91
2023/04/22 01:07:45;;;;;;;4.00;2.42;;;13.90;99.90;;;;;;4973586;28;20066;-93
2023/04/22 01:10:11;;;;;;;2.78;2.58;;;14.00;99.90;;;;;;4974397;28;20389;-92
2023/04/22 01:12:37;;;;;;;3.22;2.30;;;14.00;99.90;;;;;;4974673;28;20042;-92
2023/04/22 01:15:03;;;;;;;3.75;2.70;;;14.00;99.90;;;;;;4974300;28;20023;-92
2023/04/22 01:17:30;;;;;;;2.22;2.03;;;14.10;99.90;;;;;;4974424;28;20041;-91
2023/04/22 01:19:58;;;;;;;2.40;2.20;;;14.00;99.90;;;;;;4974790;28;20081;-92
2023/04/22 01:22:26;;;;;;;4.10;2.40;;;14.00;99.90;;;;;;4973141;28;20027;-92
2023/04/22 01:24:52;;;;;;;2.25;2.05;;;14.00;99.90;;;;;;4973873;28;20039;-92
2023/04/22 01:27:19;;;;;;;3.20;2.63;;;14.00;99.90;;;;;;4974556;28;20099;-92
2023/04/22 01:29:46;;;;;;;2.85;2.15;;;13.50;99.90;;;;;;4974058;28;20484;-92
2023/04/22 01:32:12;;;;;;;3.60;2.17;;;13.90;99.90;;;;;;4974452;28;20030;-92
2023/04/22 01:34:37;;;;;;;2.63;2.38;;;13.80;99.90;;;;;;4974277;28;20084;-92
2023/04/22 01:37:03;;;;;;;2.85;2.40;;;13.80;99.90;;;;;;4974202;28;20027;-92
2023/04/22 01:39:29;;;;;;;3.35;2.58;;;13.80;99.90;;;;;;4973876;28;20432;-91
2023/04/22 01:41:57;;;;;;;2.78;2.58;;;13.90;99.90;;;;;;4974225;28;20031;-90
2023/04/22 01:44:22;;;;;;;3.25;2.60;;;13.80;99.90;;;;;;4974096;28;20038;-89
2023/04/22 01:46:48;;;;;;;4.88;2.35;;;13.90;99.90;;;;;;4973604;28;20027;-89
2023/04/22 01:49:14;;;;;;;2.22;2.03;;;14.00;99.90;;;;;;4972552;28;20408;-89
2023/04/22 01:51:39;;;;;;;2.88;2.20;;;13.90;99.90;;;;;;4972563;28;20026;-90
2023/04/22 01:54:05;;;;;;;2.80;2.40;;;13.90;99.90;;;;;;4972267;28;20062;-90
2023/04/22 01:56:31;;;;;;;2.47;2.10;;;14.10;99.90;;;;;;4972200;28;20023;-89
2023/04/22 01:58:56;;;;;;;5.18;2.50;;;14.10;99.90;;;;;;4972649;28;20065;-90
2023/04/22 02:01:22;;;;;;;3.35;2.50;;;14.10;99.90;;;;;;4972530;28;20023;-90
2023/04/22 02:03:47;;;;;;;2.60;2.40;;;14.00;99.90;;;;;;4973766;28;20082;-91
2023/04/22 02:06:13;;;;;;;4.20;2.70;;;14.10;99.90;;;;;;4973405;28;20082;-85
2023/04/22 02:08:39;;;;;;;2.92;2.65;;;14.00;99.90;;;;;;4973588;28;20404;-90
2023/04/22 02:11:04;;;;;;;5.00;2.53;;;14.00;99.90;;;;;;4972892;28;20435;-90
2023/04/22 02:13:37;;;;;;;3.53;2.38;;;13.80;99.90;;;;;;4973399;28;20034;-89
2023/04/22 02:16:04;;;;;;;2.60;2.40;;;13.80;99.90;;;;;;4972008;28;20066;-90
2023/04/22 02:18:30;;;;;;;3.97;2.50;;;13.80;99.90;;;;;;4973351;28;20030;-90
2023/04/22 02:20:56;;;;;;;2.55;2.35;;;13.90;99.90;;;;;;4971659;28;20031;-89
2023/04/22 02:23:22;;;;;;;4.20;2.65;;;13.80;99.90;;;;;;4972994;28;20039;-90
2023/04/22 02:25:51;;;;;;;3.05;2.50;;;13.90;99.90;;;;;;4973521;28;20069;-89
2023/04/22 02:28:17;;;;;;;3.35;2.50;;;13.90;99.90;;;;;;4973521;28;20031;-90
2023/04/22 02:30:44;;;;;;;4.97;2.13;;;13.90;99.90;;;;;;4973305;28;20110;-89
2023/04/22 02:33:10;;;;;;;3.13;2.35;;;13.90;99.90;;;;;;4973173;28;20062;-89
2023/04/22 02:35:35;;;;;;;2.72;2.50;;;13.80;99.90;;;;;;4972950;28;20061;-89
2023/04/22 02:38:01;;;;;;;2.60;2.20;;;13.70;99.90;;;;;;4973341;28;20037;-89
2023/04/22 02:40:27;;;;;;;3.67;2.20;;;13.80;99.90;;;;;;4973260;28;20025;-89
2023/04/22 02:42:52;;;;;;;3.65;2.60;;;13.90;99.90;;;;;;4977142;28;20073;-90
2023/04/22 02:45:18;;;;;;;2.70;2.50;;;13.80;99.90;;;;;;4975480;28;20058;-90
2023/04/22 02:47:43;;;;;;;3.53;2.78;;;13.80;99.90;;;;;;4957484;28;20035;-89
2023/04/22 02:50:09;;;;;;;3.67;2.33;;;13.80;99.90;;;;;;4955909;29;20070;-90
2023/04/22 02:52:35;;;;;;;2.83;2.50;;;13.80;99.90;;;;;;4955947;29;20086;-90
2023/04/22 02:55:01;;;;;;;4.70;2.60;;;13.80;99.90;;;;;;4957722;29;20139;-89
2023/04/22 02:57:26;;;;;;;2.80;2.55;;;13.80;99.90;;;;;;4956533;29;20034;-90
2023/04/22 02:59:52;;;;;;;3.85;2.40;;;13.80;99.90;;;;;;4971815;28;20046;-89
2023/04/22 03:02:18;;;;;;;3.03;2.33;;;13.90;99.90;;;;;;4976899;28;20133;-90
2023/04/22 03:04:44;;;;;;;3.72;2.40;;;13.80;99.90;;;;;;4976348;28;20023;-90
2023/04/22 03:07:10;;;;;;;3.45;2.38;;;13.90;99.90;;;;;;4976742;28;20140;-90
2023/04/22 03:09:35;;;;;;;4.00;2.42;;;14.00;99.90;;;;;;4976688;28;20034;-90
2023/04/22 03:12:01;;;;;;;3.35;2.45;;;14.00;99.90;;;;;;4975581;28;20058;-89
2023/04/22 03:14:27;;;;;;;4.03;2.55;;;14.00;99.90;;;;;;4976415;28;20031;-90
2023/04/22 03:16:53;;;;;;;2.83;2.53;;;13.90;99.90;;;;;;4975461;28;20118;-89
2023/04/22 03:19:18;;;;;;;3.20;2.85;;;13.90;99.90;;;;;;4976036;28;20171;-90
2023/04/22 03:21:44;;;;;;;2.45;2.25;;;14.00;99.90;;;;;;4976593;28;20031;-90
2023/04/22 03:24:10;;;;;;;3.75;2.42;;;13.90;99.90;;;;;;4976135;28;20027;-90
2023/04/22 03:26:35;;;;;;;4.80;2.50;;;13.90;99.90;;;;;;4975062;28;20121;-89
2023/04/22 03:29:01;;;;;;;4.25;2.50;;;13.90;99.90;;;;;;4976356;28;20081;-89
2023/04/22 03:31:27;;;;;;;3.22;2.35;;;13.90;99.90;;;;;;4976613;28;20035;-90
2023/04/22 03:33:52;;;;;;;5.10;3.03;;;13.90;99.90;;;;;;4975662;28;20037;-89
2023/04/22 03:36:18;;;;;;;4.18;2.47;;;13.90;99.90;;;;;;4976190;28;20030;-90
2023/04/22 03:38:44;;;;;;;2.60;2.40;;;13.90;99.90;;;;;;4976203;28;20093;-89
2023/04/22 03:41:09;;;;;;;2.40;2.10;;;14.00;99.90;;;;;;4976116;28;20033;-89
2023/04/22 03:43:35;;;;;;;4.50;2.50;;;13.90;99.90;;;;;;4976056;28;20030;-90
2023/04/22 03:46:00;;;;;;;3.60;2.40;;;13.90;99.90;;;;;;4974944;28;20085;-90
2023/04/22 03:48:28;;;;;;;4.50;2.53;;;14.00;99.90;;;;;;4974002;28;20519;-90
2023/04/22 03:50:54;;;;;;;4.80;2.97;;;13.80;99.90;;;;;;4976201;28;20538;-91
2023/04/22 03:53:20;;;;;;;3.92;2.85;;;13.70;99.90;;;;;;4975834;28;20039;-90
2023/04/22 03:55:46;;;;;;;5.68;2.83;;;13.70;99.90;;;;;;4974829;28;20476;-89
2023/04/22 03:58:11;;;;;;;4.32;2.90;;;13.80;99.90;;;;;;4974086;28;20031;-90
2023/04/22 04:00:37;;;;;;;3.28;2.70;;;13.70;99.90;;;;;;4974605;28;20050;-90
2023/04/22 04:03:02;;;;;;;4.80;3.15;;;13.70;99.90;;;;;;4975154;28;20416;-90
2023/04/22 04:05:28;;;;;;;6.18;3.20;;;13.70;99.90;;;;;;4973783;28;20103;-89
2023/04/22 04:07:54;;;;;;;3.15;2.83;;;13.70;99.90;;;;;;4974172;28;20065;-89
2023/04/22 04:10:19;;;;;;;3.25;2.88;;;13.70;99.90;;;;;;4975198;28;20027;-90
2023/04/22 04:12:45;;;;;;;2.80;2.55;;;13.80;99.90;;;;;;4973878;28;20174;-89
2023/04/22 04:15:10;;;;;;;3.00;2.55;;;13.80;99.90;;;;;;4975453;28;20022;-90
2023/04/22 04:17:36;;;;;;;2.50;2.22;;;13.80;99.90;;;;;;4974334;28;20117;-90
2023/04/22 04:20:02;;;;;;;4.68;2.63;;;13.80;99.90;;;;;;4975472;28;20031;-90
2023/04/22 04:22:28;;;;;;;2.92;2.60;;;13.70;99.90;;;;;;4973965;28;20404;-90
2023/04/22 04:24:54;;;;;;;3.88;2.70;;;13.70;99.90;;;;;;4975431;28;20026;-89
2023/04/22 04:27:22;;;;;;;4.28;2.80;;;13.70;99.90;;;;;;4974064;28;20484;-89
2023/04/22 04:29:48;;;;;;;4.07;2.83;;;13.70;99.90;;;;;;4975314;28;20050;-90
2023/04/22 04:32:14;;;;;;;3.47;2.63;;;13.70;99.90;;;;;;4975128;28;20038;-90
2023/04/22 04:34:41;;;;;;;8.43;2.92;;;13.70;99.90;;;;;;4973897;28;20408;-89
2023/04/22 04:37:07;;;;;;;2.72;2.50;;;13.70;99.90;;;;;;4975011;28;20027;-90
2023/04/22 04:39:32;;;;;;;3.65;3.13;;;13.80;99.90;;;;;;4974211;28;20037;-90
2023/04/22 04:41:59;;;;;;;4.45;3.40;;;13.60;99.90;;;;;;4975108;28;20065;-89
2023/04/22 04:44:30;;;;;;;3.85;3.08;;;13.50;99.90;;;;;;4974739;28;20530;-90
2023/04/22 04:46:56;;;;;;;3.83;3.00;;;13.60;99.90;;;;;;4974733;28;20037;-89
2023/04/22 04:49:22;;;;;;;6.10;3.70;;;13.70;99.90;;;;;;4974741;28;20023;-89
2023/04/22 04:51:48;;;;;;;3.70;3.33;;;13.40;99.90;;;;;;4974453;28;20039;-89
2023/04/22 04:54:14;;;;;;;3.03;2.83;;;13.40;99.90;;;;;;4974832;28;20093;-90
2023/04/22 04:56:40;;;;;;;4.80;3.00;;;13.70;99.90;;;;;;4974604;28;20081;-90
2023/04/22 04:59:06;;;;;;;3.60;3.05;;;13.30;99.90;;;;;;4974600;28;20086;-90
2023/04/22 05:01:31;;;;;;;4.25;2.88;;;13.30;99.90;;;;;;4973046;28;20045;-90
2023/04/22 05:03:57;;;;;;;3.30;2.72;;;13.50;99.90;;;;;;4974154;28;20030;-89
2023/04/22 05:06:23;;;;;;;3.67;2.75;;;13.50;99.90;;;;;;4974570;28;20465;-89
2023/04/22 05:08:48;;;;;;;6.32;2.92;;;13.50;99.90;;;;;;4974524;28;20058;-90
2023/04/22 05:11:14;;;;;;;3.00;2.70;;;13.50;99.90;;;;;;4974691;28;20034;-90
2023/04/22 05:13:39;;;;;;;4.68;3.20;;;13.50;99.90;;;;;;4973998;28;20439;-90
2023/04/22 05:16:05;;;;;;;2.83;2.40;;;13.50;99.90;;;;;;4972206;28;20027;-92
2023/04/22 05:18:31;;;;;;;5.13;2.83;;;13.50;99.90;;;;;;4973384;28;20066;-90
2023/04/22 05:20:58;;;;;;;3.90;3.08;;;13.60;99.90;;;;;;4974812;28;20034;-92
2023/04/22 05:23:24;;;;;;;4.90;3.63;;;13.60;99.90;;;;;;4973738;28;20114;-92
2023/04/22 05:25:50;;;;;;;4.70;3.30;;;13.40;99.90;;;;;;4973304;28;20062;-91
2023/04/22 05:28:16;;;;;;;4.18;3.13;;;13.40;99.90;;;;;;4974566;28;20023;-92
2023/04/22 05:30:41;;;;;;;3.88;3.05;;;13.40;99.90;;;;;;4974344;28;20031;-91
2023/04/22 05:33:07;;;;;;;3.78;3.10;;;13.30;99.90;;;;;;4974815;28;20130;-93
2023/04/22 05:35:34;;;;;;;6.55;2.97;;;13.50;99.90;;;;;;4974962;28;20026;-92
2023/04/22 05:38:00;;;;;;;3.88;3.00;;;13.50;99.90;;;;;;4974373;28;20030;-92
2023/04/22 05:40:26;;;;;;;4.68;3.42;;;13.50;99.90;;;;;;4974341;28;20038;-92
2023/04/22 05:42:52;;;;;;;3.33;3.00;;;13.60;99.90;;;;;;4974758;28;20031;-91
2023/04/22 05:45:17;;;;;;;3.78;2.90;;;13.60;99.90;;;;;;4972865;28;20038;-91
2023/04/22 05:47:43;;;;;;;4.43;3.20;;;13.70;99.90;;;;;;4955279;28;20038;-91
2023/04/22 05:50:09;;;;;;;3.78;3.40;;;13.50;99.90;;;;;;4953993;29;20023;-92
2023/04/22 05:52:34;;;;;;;4.63;3.03;;;13.60;99.90;;;;;;4953672;29;20500;-92
2023/04/22 05:55:00;;;;;;;4.22;3.35;;;13.80;99.90;;;;;;4953858;29;20470;-91
2023/04/22 05:57:26;;;;;;;5.05;3.17;;;13.60;99.90;;;;;;4954613;29;20034;-92
2023/04/22 05:59:51;;;;;;;4.88;3.20;;;13.70;99.90;;;;;;4969147;28;20081;-93
2023/04/22 06:02:17;;;;;;;3.88;3.30;;;13.80;99.90;;;;;;4974480;28;20040;-89
2023/04/22 06:04:42;;;;;;;5.20;3.35;;;13.90;99.90;;;;;;4973484;28;20031;-88
2023/04/22 06:07:09;;;;;;;3.70;3.28;;;14.10;99.90;;;;;;4973625;28;20027;-88
2023/04/22 06:09:35;;;;;;;4.15;3.50;;;14.00;99.90;;;;;;4973250;28;20027;-88
2023/04/22 06:12:01;;;;;;;3.50;3.17;;;14.00;99.90;;;;;;4972960;28;20513;-88
2023/04/22 06:14:26;;;;;;;5.90;3.35;;;14.00;99.90;;;;;;4971390;28;20087;-88
2023/04/22 06:16:52;;;;;;;5.57;3.88;;;13.90;99.90;;;;;;4975839;28;20031;-88
2023/04/22 06:19:18;;;;;;;4.18;3.75;;;13.80;99.90;;;;;;4977585;28;20480;-88
2023/04/22 06:21:44;;;;;;;6.65;4.18;;;13.70;99.90;;;;;;4975930;28;20109;-88
2023/04/22 06:24:10;;;;;;;4.75;3.95;;;13.70;99.90;;;;;;4977224;28;20480;-88
2023/04/22 06:26:36;;;;;;;5.82;4.78;;;13.70;99.90;;;;;;4977262;28;20030;-89
2023/04/22 06:29:04;;;;;;;6.68;4.35;;;13.90;99.90;;;;;;4975723;28;20041;-88
2023/04/22 06:31:30;;;;;;;5.82;4.05;;;13.80;99.90;;;;;;4976989;28;20026;-88
2023/04/22 06:33:56;;;;;;;4.95;3.03;;;14.00;99.90;;;;;;4976920;28;20129;-88
2023/04/22 06:36:21;;;;;;;2.40;2.20;;;14.10;99.90;;;;;;4977276;28;20080;-87
2023/04/22 06:38:47;;;;;;;3.90;1.98;;;14.30;99.90;;;;;;4976691;28;20027;-88
2023/04/22 06:41:13;;;;;;;3.60;2.05;;;14.30;99.90;;;;;;4977192;28;20034;-88
2023/04/22 06:43:38;;;;;;;3.35;2.22;;;14.40;99.90;;;;;;4976566;28;20530;-88
2023/04/22 06:46:04;;;;;;;2.20;2.00;;;14.40;99.90;;;;;;4976581;28;20023;-87
2023/04/22 06:48:30;;;;;;;3.83;2.13;;;14.50;99.90;;;;;;4975431;28;20403;-88
2023/04/22 06:50:56;;;;;;;4.03;2.20;;;14.40;99.90;;;;;;4977061;28;20034;-88
2023/04/22 06:53:21;;;;;;;2.67;2.30;;;14.40;99.90;;;;;;4976566;28;20031;-88
2023/04/22 06:55:47;;;;;;;3.10;2.38;;;14.40;99.90;;;;;;4976622;28;20112;-88
2023/04/22 06:58:13;;;;;;;3.67;2.15;;;14.30;99.90;;;;;;4975925;28;20488;-87
2023/04/22 07:00:38;;;;;;;3.47;2.20;;;14.40;99.90;;;;;;4976974;28;20508;-88
2023/04/22 07:03:04;;;;;;;3.00;2.15;;;14.60;99.90;;;;;;4976281;28;20488;-88
2023/04/22 07:05:30;;;;;;;4.32;2.42;;;14.60;99.90;;;;;;4975243;28;20023;-88
2023/04/22 07:07:56;;;;;;;3.50;2.65;;;14.60;99.90;;;;;;4976391;28;20113;-88
2023/04/22 07:10:22;;;;;;;2.97;2.38;;;14.70;99.90;;;;;;4976102;28;20074;-88
2023/04/22 07:12:47;;;;;;;4.15;2.70;;;14.90;99.90;;;;;;4976195;28;20515;-88
2023/04/22 07:15:13;;;;;;;2.65;2.20;;;14.90;99.90;;;;;;4974897;28;20031;-88
2023/04/22 07:17:39;;;;;;;4.05;2.30;;;15.00;99.90;;;;;;4976167;28;20392;-88
2023/04/22 07:20:05;;;;;;;4.85;2.17;;;15.00;99.90;;;;;;4976233;28;20084;-88
2023/04/22 07:22:31;;;;;;;3.50;2.35;;;14.90;99.90;;;;;;4976297;28;20031;-88
2023/04/22 07:24:56;;;;;;;2.53;2.28;;;14.90;99.90;;;;;;4976063;28;20037;-89
2023/04/22 07:27:22;;;;;;;3.67;2.42;;;14.90;99.90;;;;;;4975227;28;20105;-88
2023/04/22 07:29:48;;;;;;;2.75;1.98;;;14.90;99.90;;;;;;4975188;28;20034;-90
2023/04/22 07:32:13;;;;;;;3.50;2.20;;;14.90;99.90;;;;;;4975351;28;20042;-90
2023/04/22 07:34:39;;;;;;;4.22;2.60;;;14.90;99.90;;;;;;4976143;28;20042;-88
2023/04/22 07:37:06;;;;;;;3.85;2.25;;;14.80;99.90;;;;;;4975728;28;20503;-88
2023/04/22 07:39:31;;;;;;;3.13;2.10;;;14.90;99.90;;;;;;4975855;28;20022;-89
2023/04/22 07:41:57;;;;;;;4.13;3.00;;;14.80;99.90;;;;;;4976108;28;20102;-88
2023/04/22 07:44:23;;;;;;;3.95;2.05;;;14.70;99.90;;;;;;4975719;28;20078;-89
2023/04/22 07:46:49;;;;;;;2.67;2.10;;;14.80;99.90;;;;;;4975617;28;20101;-88
2023/04/22 07:49:16;;;;;;;2.45;2.20;;;14.80;99.90;;;;;;4974409;28;20118;-88
2023/04/22 07:51:44;;;;;;;2.95;2.15;;;14.70;99.90;;;;;;4975521;28;20086;-88
2023/04/22 07:54:10;;;;;;;2.30;1.63;;;14.70;99.90;;;;;;4975819;28;20034;-88
2023/04/22 07:56:36;;;;;;;2.60;2.03;;;14.70;99.90;;;;;;4975451;28;20065;-88
2023/04/22 07:59:02;;;;;;;3.55;2.00;;;14.70;99.90;;;;;;4975305;28;20468;-88
2023/04/22 08:01:28;;;;;;;1.70;1.60;;;14.80;99.90;;;;;;4975611;28;20110;-88
2023/04/22 08:03:54;;;;;;;2.70;1.88;;;14.90;99.90;;;;;;4975330;28;20149;-88
2023/04/22 08:06:19;;;;;;;3.28;2.00;;;15.00;99.90;;;;;;4975327;28;20037;-88
2023/04/22 08:08:45;;;;;;;4.57;2.15;;;15.10;99.90;;;;;;4973560;28;20424;-88
2023/04/22 08:11:11;;;;;;;2.63;2.08;;;15.20;99.90;;;;;;4974209;28;20030;-89
2023/04/22 08:13:36;;;;;;;2.55;1.98;;;15.30;99.90;;;;;;4975122;28;20030;-89
2023/04/22 08:16:02;;;;;;;4.93;1.85;;;15.40;99.90;;;;;;4975251;28;20031;-88
2023/04/22 08:18:28;;;;;;;3.05;1.80;;;15.30;99.90;;;;;;4975017;28;20113;-88
2023/04/22 08:20:54;;;;;;;2.35;1.90;;;15.30;99.90;;;;;;4973759;28;20031;-89
2023/04/22 08:23:21;;;;;;;3.70;1.90;;;15.40;99.90;;;;;;4974565;28;20403;-89
2023/04/22 08:25:47;;;;;;;2.13;1.83;;;15.40;99.90;;;;;;4974944;28;20381;-88
2023/04/22 08:28:13;;;;;;;2.30;1.70;;;15.30;99.90;;;;;;4975114;28;20015;-88
2023/04/22 08:30:39;;;;;;;3.90;1.75;;;15.40;99.90;;;;;;4974118;28;20117;-88
2023/04/22 08:33:05;;;;;;;3.30;1.90;;;15.30;99.90;;;;;;4973428;28;20552;-89
2023/04/22 08:35:33;;;;;;;1.70;1.60;;;15.40;99.90;;;;;;4973577;28;20030;-88
2023/04/22 08:37:58;;;;;;;3.05;2.00;;;15.40;99.90;;;;;;4972740;28;20101;-88
2023/04/22 08:40:24;;;;;;;4.97;1.90;;;15.30;99.90;;;;;;4974092;28;20488;-88
2023/04/22 08:42:51;;;;;;;2.63;2.00;;;15.30;99.90;;;;;;4974996;28;20027;-88
2023/04/22 08:45:17;;;;;;;2.40;1.60;;;15.30;99.90;;;;;;4974526;28;20027;-88
2023/04/22 08:47:43;;;;;;;2.50;2.00;;;15.40;99.90;;;;;;4974422;28;20479;-88
2023/04/22 08:50:09;;;;;;;3.28;1.83;;;15.40;99.90;;;;;;4974476;28;20118;-88
2023/04/22 08:52:36;;;;;;;2.65;1.88;;;15.30;99.90;;;;;;4973820;28;20114;-88
2023/04/22 08:55:01;;;;;;;3.22;2.10;;;15.40;99.90;;;;;;4974878;28;20529;-88
2023/04/22 08:57:28;;;;;;;3.25;1.73;;;15.50;99.90;;;;;;4974245;28;20031;-88
2023/04/22 08:59:55;;;;;;;3.88;1.80;;;15.60;99.90;;;;;;4974078;28;20085;-88
2023/04/22 09:02:23;;;;;;;4.13;2.00;;;15.60;99.90;;;;;;4974171;28;20126;-88
2023/04/22 09:04:50;;;;;;;2.70;2.30;;;15.70;99.90;;;;;;4974233;28;20054;-88
2023/04/22 09:07:30;;;;;;;2.33;1.83;;;15.70;99.90;;;;;;4973838;28;20035;-88
2023/04/22 09:09:57;;;;;;;5.20;2.10;;;15.80;99.90;;;;;;4974540;28;20529;-88
2023/04/22 09:12:24;;;;;;;2.30;1.60;;;15.90;99.90;;;;;;4973960;28;20097;-88
2023/04/22 09:14:51;;;;;;;2.05;1.80;;;15.90;99.90;;;;;;4972736;28;20134;-88
2023/04/22 09:17:28;;;;;;;2.83;1.90;;;16.00;99.90;;;;;;4974403;28;20054;-89
2023/04/22 09:19:58;;;;;;;4.05;1.70;;;16.10;99.90;;;;;;4972597;28;20488;-87
2023/04/22 09:22:35;;;;;;;2.75;1.88;;;16.30;99.90;;;;;;4973391;28;20066;-88
2023/04/22 09:25:03;;;;;;;2.65;1.75;;;16.50;99.90;;;;;;4972653;28;20022;-88
2023/04/22 09:27:29;;;;;;;2.35;2.00;;;16.50;99.90;;;;;;4973730;28;20105;-88
2023/04/22 09:29:54;;;;;;;2.30;1.88;;;16.70;99.90;;;;;;4973792;28;20552;-88
2023/04/22 09:32:23;;;;;;;3.30;2.00;;;16.60;99.90;;;;;;4973640;28;20030;-88
2023/04/22 09:34:52;;;;;;;2.80;1.80;;;16.60;99.90;;;;;;4973874;28;20139;-88
2023/04/22 09:37:25;;;;;;;5.35;2.00;;;16.60;99.90;;;;;;4972037;28;20061;-88
2023/04/22 09:39:51;;;;;;;2.70;1.90;;;16.60;99.90;;;;;;4974146;28;20030;-88
2023/04/22 09:42:18;;;;;;;2.20;1.90;;;16.60;99.90;;;;;;4973579;28;20022;-89
2023/04/22 09:44:45;;;;;;;3.22;1.80;;;16.70;99.90;;;;;;4973558;28;20038;-88
2023/04/22 09:47:12;;;;;;;2.15;1.60;;;16.50;99.90;;;;;;4973319;28;20027;-88
2023/04/22 09:49:37;;;;;;;5.05;1.83;;;16.40;99.90;;;;;;4973437;28;20059;-88
2023/04/22 09:52:03;;;;;;;2.70;1.70;;;16.40;99.90;;;;;;4972937;28;20436;-88
2023/04/22 09:54:29;;;;;;;2.20;2.00;;;16.40;99.90;;;;;;4973423;28;20070;-88
2023/04/22 09:56:55;;;;;;;3.80;2.00;;;16.40;99.90;;;;;;4973858;28;20054;-88
2023/04/22 09:59:22;;;;;;;3.40;2.05;;;16.40;99.90;;;;;;4973154;28;20133;-89
2023/04/22 10:01:49;;;;;;;3.33;1.67;;;16.40;99.90;;;;;;4973309;28;20505;-88
2023/04/22 10:04:20;;;;;;;3.67;2.00;;;16.50;99.90;;;;;;4973329;28;20035;-89
2023/04/22 10:06:46;;;;;;;2.13;1.90;;;16.40;99.90;;;;;;4972919;28;20034;-88
2023/04/22 10:09:12;;;;;;;2.47;1.75;;;16.50;99.90;;;;;;4973220;28;20030;-88
2023/04/22 10:11:39;;;;;;;3.03;1.80;;;16.50;99.90;;;;;;4973261;28;20031;-89
2023/04/22 10:14:05;;;;;;;2.28;1.60;;;16.60;99.90;;;;;;4973439;28;20046;-88
2023/04/22 10:16:33;;;;;;;2.47;1.50;;;16.60;99.90;;;;;;4972129;28;20439;-88
2023/04/22 10:19:03;;;;;;;2.55;1.88;;;16.50;99.90;;;;;;4973229;28;20507;-88
2023/04/22 10:21:30;;;;;;;2.03;1.65;;;16.60;99.90;;;;;;4972801;28;20038;-88
2023/04/22 10:23:58;;;;;;;2.95;1.70;;;16.80;99.90;;;;;;4973127;28;20498;-88
2023/04/22 10:26:47;;;;;;;2.17;1.50;;;17.00;99.90;;;;;;4972967;28;20062;-88
2023/04/22 10:29:15;;;;;;;2.83;1.83;;;16.90;99.90;;;;;;4974509;28;20035;-88
2023/04/22 10:32:02;;;;;;;3.28;1.67;;;17.00;99.90;;;;;;4973002;28;20041;-88
2023/04/22 10:34:31;;;;;;;1.80;1.70;;;17.00;99.90;;;;;;4972102;28;20050;-88
2023/04/22 10:37:08;;;;;;;2.05;1.50;;;17.00;99.90;;;;;;4973260;28;20439;-89
2023/04/22 10:39:34;;;;;;;2.33;1.92;;;16.80;99.90;;;;;;4972091;28;20105;-88
2023/04/22 10:42:08;;;;;;;2.65;1.73;;;16.90;99.90;;;;;;4972946;28;20037;-88
2023/04/22 10:44:58;;;;;;;1.60;1.45;;;17.00;99.90;;;;;;4972975;28;20027;-88
2023/04/22 10:47:29;;;;;;;1.88;1.70;;;17.00;99.90;;;;;;4972800;28;20520;-86
2023/04/22 10:50:27;;;;;;;2.05;1.70;;;17.10;99.90;;;;;;4972385;28;20086;-86
2023/04/22 10:53:17;;;;;;;3.80;1.98;;;17.10;99.90;;;;;;4972924;28;20042;-86
2023/04/22 10:55:52;;;;;;;3.97;1.70;;;17.10;99.90;;;;;;4972646;28;20070;-86
2023/04/22 10:58:23;;;;;;;2.15;1.70;;;17.10;99.90;;;;;;4972990;28;20046;-86
2023/04/22 11:00:56;;;;;;;2.25;1.90;;;17.10;99.90;;;;;;4972857;28;20027;-86
2023/04/22 11:03:29;;;;;;;2.03;1.83;;;17.10;99.90;;;;;;4975060;28;20023;-86
2023/04/22 11:06:15;;;;;;;3.85;1.60;;;16.90;99.90;;;;;;4976708;28;20022;-86
2023/04/22 11:08:49;;;;;;;3.45;1.75;;;17.00;99.90;;;;;;4975535;28;20570;-86
2023/04/22 11:11:18;;;;;;;2.72;1.80;;;17.10;99.90;;;;;;4974972;28;20022;-86
2023/04/22 11:13:46;;;;;;;2.97;1.90;;;17.10;99.90;;;;;;4976164;28;20049;-86
2023/04/22 11:16:12;;;;;;;3.22;1.55;;;17.10;99.90;;;;;;4976687;28;20042;-86
2023/04/22 11:18:37;;;;;;;2.28;1.80;;;17.20;99.90;;;;;;4974505;28;20434;-86
2023/04/22 11:21:08;;;;;;;2.00;1.80;;;17.30;99.90;;;;;;4976200;28;20027;-86
2023/04/22 11:23:34;;;;;;;2.05;1.67;;;17.30;99.90;;;;;;4976194;28;20207;-86
2023/04/22 11:26:05;;;;;;;3.92;2.13;;;17.40;99.90;;;;;;4976032;28;20370;-86
2023/04/22 11:28:32;;;;;;;2.53;1.73;;;17.60;99.90;;;;;;4976179;28;20030;-85
2023/04/22 11:31:06;;;;;;;2.72;1.92;;;17.90;99.90;;;;;;4974632;28;20047;-86
2023/04/22 11:33:33;;;;;;;2.42;1.95;;;18.20;99.90;;;;;;4975430;28;20042;-86
2023/04/22 11:35:59;;;;;;;4.05;2.10;;;18.30;99.90;;;;;;4975886;28;20038;-86
2023/04/22 11:38:25;;;;;;;4.28;1.80;;;18.40;99.90;;;;;;4975778;28;20042;-86
2023/04/22 11:40:54;;;;;;;2.85;1.90;;;18.60;99.90;;;;;;4975789;28;20019;-86
2023/04/22 11:43:20;;;;;;;1.80;1.70;;;18.70;99.90;;;;;;4975648;28;20066;-86
2023/04/22 11:45:46;;;;;;;1.80;1.60;;;18.60;99.90;;;;;;4975978;28;20495;-86
2023/04/22 11:48:13;;;;;;;2.45;1.65;;;18.70;99.90;;;;;;4975261;28;20063;-86
2023/04/22 11:50:41;;;;;;;4.15;1.80;;;19.00;99.90;;;;;;4975671;28;20039;-86
2023/04/22 11:53:22;;;;;;;4.22;1.85;;;19.00;99.90;;;;;;4975289;28;20073;-86
2023/04/22 11:55:50;;;;;;;2.22;1.40;;;19.20;99.90;;;;;;4974221;28;20031;-86
2023/04/22 11:58:18;;;;;;;2.05;1.70;;;19.20;99.90;;;;;;4975144;28;20031;-86
2023/04/22 12:00:49;;;;;;;2.50;1.58;;;18.90;99.90;;;;;;4974171;28;20031;-86
2023/04/22 12:03:23;;;;;;;3.38;1.65;;;19.00;99.90;;;;;;4974015;28;20529;-86
2023/04/22 12:05:57;;;;;;;1.95;1.60;;;18.90;99.90;;;;;;4975354;28;20023;-86
2023/04/22 12:08:41;;;;;;;2.88;1.77;;;18.90;99.90;;;;;;4973916;28;20035;-86
2023/04/22 12:11:09;;;;;;;2.85;1.58;;;19.00;99.90;;;;;;4975354;28;20101;-86
2023/04/22 12:13:39;;;;;;;3.05;1.48;;;19.20;99.90;;;;;;4974976;28;20039;-86
2023/04/22 12:16:10;;;;;;;2.75;1.60;;;19.10;99.90;;;;;;4975092;28;20027;-86
2023/04/22 12:18:55;;;;;;;2.72;1.80;;;19.00;99.90;;;;;;4975215;28;20081;-86
2023/04/22 12:21:23;;;;;;;4.90;1.70;;;19.10;99.90;;;;;;4975010;28;20029;-86
2023/04/22 12:23:51;;;;;;;2.38;1.65;;;19.30;99.90;;;;;;4974968;28;20058;-86
2023/04/22 12:26:18;;;;;;;2.60;1.60;;;19.20;99.90;;;;;;4974963;28;20117;-86
2023/04/22 12:28:45;;;;;;;2.72;1.60;;;19.10;99.90;;;;;;4973666;28;20057;-86
2023/04/22 12:31:12;;;;;;;3.75;1.70;;;19.00;99.90;;;;;;4974350;28;20030;-87
2023/04/22 12:33:38;;;;;;;4.70;1.98;;;18.90;99.90;;;;;;4974768;28;20393;-86
2023/04/22 12:36:04;;;;;;;2.33;1.48;;;19.00;99.90;;;;;;4974734;28;20089;-86
2023/04/22 12:38:30;;;;;;;2.97;1.75;;;18.90;99.90;;;;;;4974702;28;20034;-86
2023/04/22 12:40:56;;;;;;;3.45;1.70;;;19.00;99.90;;;;;;4975169;28;20085;-86
2023/04/22 12:43:22;;;;;;;2.55;1.80;;;19.30;99.90;;;;;;4974716;28;20101;-87
2023/04/22 12:45:47;;;;;;;3.33;1.90;;;20.20;99.90;;;;;;4974038;28;20549;-86
2023/04/22 12:48:13;;;;;;;3.28;2.13;;;20.70;99.90;;;;;;4973330;28;20026;-86